createdAt,value
2016-05-02T00:00:47.305Z,19.23
2016-05-02T00:01:46.668Z,19.21
2016-05-02T00:02:46.671Z,19.15
2016-05-02T00:03:46.642Z,19.21
2016-05-02T00:04:46.613Z,19.23
2016-05-02T00:05:46.757Z,19.13
2016-05-02T00:06:46.572Z,19.21
2016-05-02T00:07:46.559Z,19.24
2016-05-02T00:08:46.593Z,19.25
2016-05-02T00:09:46.518Z,19.12
2016-05-02T00:10:46.489Z,19.12
2016-05-02T00:11:46.476Z,19.24
2016-05-02T00:12:46.463Z,19.25
2016-05-02T00:13:46.450Z,19.23
2016-05-02T00:14:46.420Z,19.15
2016-05-02T00:15:46.409Z,19.25
2016-05-02T00:16:46.584Z,19.2
2016-05-02T00:17:46.351Z,19.16
2016-05-02T00:18:46.323Z,19.1
2016-05-02T00:19:46.309Z,19.1
2016-05-02T00:20:46.312Z,19.1
2016-05-02T00:21:46.111Z,19.15
2016-05-02T00:22:46.256Z,19.1
2016-05-02T00:23:46.086Z,19.17
2016-05-02T00:24:46.605Z,19.2
2016-05-02T00:25:46.030Z,19.17
2016-05-02T00:26:46.172Z,19.2
2016-05-02T00:27:46.143Z,19.13
2016-05-02T00:28:46.130Z,19.12
2016-05-02T00:29:45.806Z,19.12
2016-05-02T00:30:46.089Z,19.15
2016-05-02T00:31:46.217Z,19.15
2016-05-02T00:32:46.063Z,19.12
2016-05-02T00:33:46.035Z,19.09
2016-05-02T00:34:46.006Z,19.12
2016-05-02T00:35:45.993Z,19.1
2016-05-02T00:36:45.809Z,19.17
2016-05-02T00:37:45.937Z,19.1
2016-05-02T00:38:45.923Z,19.16
2016-05-02T00:39:46.223Z,19.15
2016-05-02T00:40:45.740Z,19.1
2016-05-02T00:41:45.869Z,19.07
2016-05-02T00:42:45.700Z,19.07
2016-05-02T00:43:45.859Z,19.1
2016-05-02T00:44:45.814Z,19.15
2016-05-02T00:45:45.786Z,19.1
2016-05-02T00:46:45.773Z,19.07
2016-05-02T00:47:46.244Z,19.06
2016-05-02T00:48:45.716Z,19.1
2016-05-02T00:49:45.703Z,19.1
2016-05-02T00:50:46.128Z,19.12
2016-05-02T00:51:45.661Z,19.13
2016-05-02T00:52:45.648Z,19.12
2016-05-02T00:53:45.620Z,19.12
2016-05-02T00:54:45.638Z,19.12
2016-05-02T00:55:46.250Z,19.07
2016-05-02T00:56:45.409Z,19.12
2016-05-02T00:57:45.536Z,18.97
2016-05-02T00:58:45.524Z,19.12
2016-05-02T00:59:45.511Z,19.06
2016-05-02T01:00:45.482Z,19.05
2016-05-02T01:01:45.313Z,19.06
2016-05-02T01:02:45.450Z,18.99
2016-05-02T01:03:45.575Z,19.07
2016-05-02T01:04:45.497Z,19.01
2016-05-02T01:05:45.810Z,19.01
2016-05-02T01:06:45.387Z,19.01
2016-05-02T01:07:45.553Z,19.02
2016-05-02T01:08:45.400Z,19.05
2016-05-02T01:09:45.560Z,18.97
2016-05-02T01:10:45.548Z,19.05
2016-05-02T01:11:45.801Z,18.97
2016-05-02T01:12:45.537Z,18.99
2016-05-02T01:13:45.513Z,18.97
2016-05-02T01:14:45.365Z,18.97
2016-05-02T01:15:45.484Z,18.96
2016-05-02T01:16:45.477Z,18.99
2016-05-02T01:17:45.453Z,18.93
2016-05-02T01:18:45.442Z,19.02
2016-05-02T01:19:45.868Z,19.01
2016-05-02T01:20:45.404Z,19.06
2016-05-02T01:21:45.393Z,18.94
2016-05-02T01:22:45.210Z,18.96
2016-05-02T01:23:45.338Z,19.02
2016-05-02T01:24:45.326Z,19.02
2016-05-02T01:25:45.315Z,19.05
2016-05-02T01:26:45.348Z,19.05
2016-05-02T01:27:45.274Z,18.91
2016-05-02T01:28:45.089Z,19.02
2016-05-02T01:29:45.233Z,18.94
2016-05-02T01:30:45.220Z,18.97
2016-05-02T01:31:45.193Z,18.89
2016-05-02T01:32:45.180Z,18.97
2016-05-02T01:33:45.151Z,19.01
2016-05-02T01:34:45.529Z,18.9
2016-05-02T01:35:44.953Z,18.93
2016-05-02T01:36:45.097Z,18.94
2016-05-02T01:37:44.912Z,18.96
2016-05-02T01:38:45.040Z,18.86
2016-05-02T01:39:45.027Z,18.97
2016-05-02T01:40:45.014Z,18.84
2016-05-02T01:41:44.985Z,18.94
2016-05-02T01:42:45.519Z,18.91
2016-05-02T01:43:44.960Z,19.01
2016-05-02T01:44:44.759Z,18.84
2016-05-02T01:45:44.902Z,18.97
2016-05-02T01:46:44.874Z,18.93
2016-05-02T01:47:44.705Z,18.87
2016-05-02T01:48:44.691Z,18.89
2016-05-02T01:49:44.663Z,18.82
2016-05-02T01:50:44.807Z,18.9
2016-05-02T01:51:44.622Z,18.93
2016-05-02T01:52:44.765Z,18.83
2016-05-02T01:53:44.737Z,18.86
2016-05-02T01:54:44.723Z,18.89
2016-05-02T01:55:44.710Z,18.9
2016-05-02T01:56:44.682Z,18.87
2016-05-02T01:57:44.498Z,18.9
2016-05-02T01:58:44.625Z,18.82
2016-05-02T01:59:44.628Z,18.82
2016-05-02T02:00:44.599Z,18.82
2016-05-02T02:01:44.429Z,18.86
2016-05-02T02:02:44.557Z,18.87
2016-05-02T02:03:44.529Z,18.89
2016-05-02T02:04:44.359Z,18.89
2016-05-02T02:05:44.503Z,18.84
2016-05-02T02:06:44.818Z,18.87
2016-05-02T02:07:44.445Z,18.83
2016-05-02T02:08:44.433Z,18.82
2016-05-02T02:09:44.405Z,18.87
2016-05-02T02:10:44.391Z,18.89
2016-05-02T02:11:44.363Z,18.78
2016-05-02T02:12:44.209Z,18.72
2016-05-02T02:13:44.322Z,18.89
2016-05-02T02:14:44.308Z,18.78
2016-05-02T02:15:44.280Z,18.82
2016-05-02T02:16:44.266Z,18.84
2016-05-02T02:17:44.238Z,18.75
2016-05-02T02:18:44.225Z,18.76
2016-05-02T02:19:44.197Z,18.78
2016-05-02T02:20:44.184Z,18.78
2016-05-02T02:21:44.155Z,18.72
2016-05-02T02:22:44.158Z,18.82
2016-05-02T02:23:44.203Z,18.79
2016-05-02T02:24:44.117Z,18.75
2016-05-02T02:25:44.093Z,18.79
2016-05-02T02:26:43.898Z,18.75
2016-05-02T02:27:44.182Z,18.75
2016-05-02T02:28:44.029Z,18.76
2016-05-02T02:29:44.000Z,18.79
2016-05-02T02:30:43.815Z,18.75
2016-05-02T02:31:43.849Z,18.78
2016-05-02T02:32:43.946Z,18.78
2016-05-02T02:33:43.917Z,18.76
2016-05-02T02:34:43.748Z,18.75
2016-05-02T02:35:43.969Z,18.72
2016-05-02T02:36:43.862Z,18.78
2016-05-02T02:37:43.850Z,18.74
2016-05-02T02:38:43.836Z,18.75
2016-05-02T02:39:43.839Z,18.74
2016-05-02T02:40:43.608Z,18.74
2016-05-02T02:41:43.751Z,18.74
2016-05-02T02:42:43.738Z,18.78
2016-05-02T02:43:43.709Z,18.75
2016-05-02T02:44:43.696Z,18.71
2016-05-02T02:45:43.668Z,18.69
2016-05-02T02:46:43.499Z,18.69
2016-05-02T02:47:43.830Z,18.71
2016-05-02T02:48:43.613Z,18.69
2016-05-02T02:49:43.429Z,18.72
2016-05-02T02:50:43.557Z,18.6
2016-05-02T02:51:43.388Z,18.75
2016-05-02T02:52:43.374Z,18.75
2016-05-02T02:53:43.502Z,18.76
2016-05-02T02:54:43.505Z,18.72
2016-05-02T02:55:43.866Z,18.66
2016-05-02T02:56:43.448Z,18.6
2016-05-02T02:57:43.278Z,18.66
2016-05-02T02:58:43.390Z,18.71
2016-05-02T02:59:43.222Z,18.59
2016-05-02T03:00:43.349Z,18.64
2016-05-02T03:01:43.336Z,18.72
2016-05-02T03:02:43.323Z,18.59
2016-05-02T03:03:43.842Z,18.64
2016-05-02T03:04:43.266Z,18.6
2016-05-02T03:05:43.254Z,18.76
2016-05-02T03:06:43.240Z,18.69
2016-05-02T03:07:43.228Z,18.66
2016-05-02T03:08:43.043Z,18.59
2016-05-02T03:09:43.170Z,18.64
2016-05-02T03:10:43.142Z,18.6
2016-05-02T03:11:43.129Z,18.6
2016-05-02T03:12:43.117Z,18.68
2016-05-02T03:13:43.087Z,18.68
2016-05-02T03:14:43.058Z,18.65
2016-05-02T03:15:43.045Z,18.68
2016-05-02T03:16:43.017Z,18.68
2016-05-02T03:17:43.020Z,18.66
2016-05-02T03:18:42.991Z,18.66
2016-05-02T03:19:43.119Z,18.59
2016-05-02T03:20:42.949Z,18.57
2016-05-02T03:21:42.969Z,18.66
2016-05-02T03:22:42.908Z,18.65
2016-05-02T03:23:42.724Z,18.6
2016-05-02T03:24:42.866Z,18.64
2016-05-02T03:25:42.838Z,18.74
2016-05-02T03:26:42.810Z,18.62
2016-05-02T03:27:42.656Z,18.59
2016-05-02T03:28:42.784Z,18.6
2016-05-02T03:29:42.599Z,18.6
2016-05-02T03:30:42.743Z,18.6
2016-05-02T03:31:42.713Z,18.57
2016-05-02T03:32:42.685Z,18.66
2016-05-02T03:33:42.687Z,18.59
2016-05-02T03:34:42.753Z,18.6
2016-05-02T03:35:42.631Z,18.65
2016-05-02T03:36:42.602Z,18.66
2016-05-02T03:37:42.589Z,18.65
2016-05-02T03:38:42.436Z,18.6
2016-05-02T03:39:42.548Z,18.64
2016-05-02T03:40:42.519Z,18.59
2016-05-02T03:41:42.490Z,18.62
2016-05-02T03:42:42.633Z,18.6
2016-05-02T03:43:42.464Z,18.59
2016-05-02T03:44:42.452Z,18.65
2016-05-02T03:45:42.423Z,18.57
2016-05-02T03:46:42.254Z,18.59
2016-05-02T03:47:42.397Z,18.56
2016-05-02T03:48:42.353Z,18.65
2016-05-02T03:49:42.340Z,18.56
2016-05-02T03:50:42.780Z,18.49
2016-05-02T03:51:42.299Z,18.64
2016-05-02T03:52:42.286Z,18.62
2016-05-02T03:53:42.257Z,18.57
2016-05-02T03:54:42.260Z,18.54
2016-05-02T03:55:42.060Z,18.56
2016-05-02T03:56:42.188Z,18.56
2016-05-02T03:57:42.175Z,18.54
2016-05-02T03:58:42.052Z,18.54
2016-05-02T03:59:42.133Z,18.59
2016-05-02T04:00:41.963Z,18.53
2016-05-02T04:01:42.091Z,18.51
2016-05-02T04:02:42.079Z,18.54
2016-05-02T04:03:42.050Z,18.51
2016-05-02T04:04:41.881Z,18.53
2016-05-02T04:05:42.009Z,18.54
2016-05-02T04:06:42.777Z,18.56
2016-05-02T04:07:41.982Z,18.56
2016-05-02T04:08:41.954Z,18.62
2016-05-02T04:09:41.769Z,18.62
2016-05-02T04:10:41.897Z,18.6
2016-05-02T04:11:41.884Z,18.62
2016-05-02T04:12:41.871Z,18.56
2016-05-02T04:13:41.842Z,18.59
2016-05-02T04:14:42.079Z,18.72
2016-05-02T04:15:41.817Z,18.96
2016-05-02T04:16:41.772Z,18.99
2016-05-02T04:17:41.759Z,18.99
2016-05-02T04:18:41.747Z,18.94
2016-05-02T04:19:41.717Z,19.09
2016-05-02T04:20:41.705Z,19.01
2016-05-02T04:21:41.677Z,19.12
2016-05-02T04:22:41.913Z,19.07
2016-05-02T04:23:41.635Z,19.02
2016-05-02T04:24:41.325Z,19.1
2016-05-02T04:25:41.608Z,18.94
2016-05-02T04:26:41.580Z,18.96
2016-05-02T04:27:41.568Z,19.02
2016-05-02T04:28:41.538Z,18.91
2016-05-02T04:29:41.510Z,18.93
2016-05-02T04:30:41.497Z,18.96
2016-05-02T04:31:41.328Z,18.97
2016-05-02T04:32:41.456Z,18.91
2016-05-02T04:33:41.287Z,19.02
2016-05-02T04:34:41.415Z,19.02
2016-05-02T04:35:41.245Z,19.02
2016-05-02T04:36:41.654Z,18.97
2016-05-02T04:37:41.704Z,19.06
2016-05-02T04:38:41.176Z,18.94
2016-05-02T04:39:41.178Z,18.97
2016-05-02T04:40:41.305Z,18.99
2016-05-02T04:41:41.292Z,18.97
2016-05-02T04:42:41.249Z,18.99
2016-05-02T04:43:41.220Z,18.94
2016-05-02T04:44:41.223Z,19.01
2016-05-02T04:45:41.741Z,19.01
2016-05-02T04:46:41.165Z,19.01
2016-05-02T04:47:41.153Z,18.97
2016-05-02T04:48:41.170Z,18.99
2016-05-02T04:49:41.127Z,18.99
2016-05-02T04:50:41.098Z,18.97
2016-05-02T04:51:41.100Z,18.91
2016-05-02T04:52:40.885Z,19.01
2016-05-02T04:53:41.731Z,18.96
2016-05-02T04:54:40.999Z,18.93
2016-05-02T04:55:40.986Z,19.01
2016-05-02T04:56:40.958Z,18.99
2016-05-02T04:57:40.945Z,19.12
2016-05-02T04:58:40.916Z,19.13
2016-05-02T04:59:40.904Z,19.12
2016-05-02T05:00:40.891Z,19.13
2016-05-02T05:01:40.862Z,19.12
2016-05-02T05:02:40.849Z,19.3
2016-05-02T05:03:40.665Z,19.2
2016-05-02T05:04:40.807Z,19.25
2016-05-02T05:05:40.638Z,19.35
2016-05-02T05:06:40.813Z,19.46
2016-05-02T05:07:40.738Z,19.46
2016-05-02T05:08:40.725Z,19.39
2016-05-02T05:09:40.852Z,19.45
2016-05-02T05:10:40.684Z,19.46
2016-05-02T05:11:40.654Z,19.45
2016-05-02T05:12:40.642Z,19.5
2016-05-02T05:13:40.613Z,19.46
2016-05-02T05:14:40.601Z,19.45
2016-05-02T05:15:40.587Z,19.42
2016-05-02T05:16:40.418Z,19.38
2016-05-02T05:17:40.984Z,19.5
2016-05-02T05:18:40.533Z,19.45
2016-05-02T05:19:40.504Z,19.46
2016-05-02T05:20:40.475Z,19.46
2016-05-02T05:21:40.463Z,19.43
2016-05-02T05:22:40.450Z,19.45
2016-05-02T05:23:40.437Z,19.38
2016-05-02T05:24:40.392Z,19.43
2016-05-02T05:25:40.380Z,19.32
2016-05-02T05:26:40.367Z,19.32
2016-05-02T05:27:40.338Z,19.35
2016-05-02T05:28:40.169Z,19.42
2016-05-02T05:29:40.141Z,19.27
2016-05-02T05:30:40.284Z,19.35
2016-05-02T05:31:40.271Z,19.32
2016-05-02T05:32:40.258Z,19.28
2016-05-02T05:33:40.229Z,19.27
2016-05-02T05:34:40.044Z,19.27
2016-05-02T05:35:40.188Z,19.27
2016-05-02T05:36:40.565Z,19.25
2016-05-02T05:37:40.131Z,19.27
2016-05-02T05:38:39.962Z,19.15
2016-05-02T05:39:39.948Z,19.23
2016-05-02T05:40:40.077Z,19.23
2016-05-02T05:41:40.048Z,19.28
2016-05-02T05:42:39.987Z,19.23
2016-05-02T05:43:40.022Z,19.2
2016-05-02T05:44:40.009Z,19.28
2016-05-02T05:45:39.996Z,19.16
2016-05-02T05:46:39.951Z,19.2
2016-05-02T05:47:39.939Z,19.23
2016-05-02T05:48:39.911Z,19.2
2016-05-02T05:49:39.898Z,19.24
2016-05-02T05:50:40.025Z,19.27
2016-05-02T05:51:40.200Z,19.31
2016-05-02T05:52:39.842Z,19.46
2016-05-02T05:53:39.814Z,19.53
2016-05-02T05:54:39.817Z,19.58
2016-05-02T05:55:39.773Z,19.6
2016-05-02T05:56:39.745Z,19.67
2016-05-02T05:57:39.731Z,19.67
2016-05-02T05:58:40.015Z,19.67
2016-05-02T05:59:39.705Z,19.78
2016-05-02T06:00:39.677Z,19.68
2016-05-02T06:01:39.664Z,19.71
2016-05-02T06:02:39.635Z,19.76
2016-05-02T06:03:39.607Z,19.79
2016-05-02T06:04:39.594Z,19.82
2016-05-02T06:05:39.581Z,19.85
2016-05-02T06:06:40.068Z,19.82
2016-05-02T06:07:39.540Z,19.83
2016-05-02T06:08:39.511Z,19.8
2016-05-02T06:09:39.483Z,19.78
2016-05-02T06:10:39.470Z,19.78
2016-05-02T06:11:39.456Z,19.72
2016-05-02T06:12:39.271Z,19.72
2016-05-02T06:13:39.415Z,19.65
2016-05-02T06:14:39.292Z,19.68
2016-05-02T06:15:39.373Z,19.8
2016-05-02T06:16:39.361Z,19.7
2016-05-02T06:17:39.332Z,19.61
2016-05-02T06:18:39.303Z,19.67
2016-05-02T06:19:39.306Z,19.62
2016-05-02T06:20:39.277Z,19.55
2016-05-02T06:21:39.639Z,19.6
2016-05-02T06:22:39.350Z,19.52
2016-05-02T06:23:39.212Z,19.58
2016-05-02T06:24:39.216Z,19.57
2016-05-02T06:25:39.202Z,19.58
2016-05-02T06:26:39.017Z,19.46
2016-05-02T06:27:39.129Z,19.42
2016-05-02T06:28:39.116Z,19.45
2016-05-02T06:29:39.088Z,19.42
2016-05-02T06:30:39.310Z,19.47
2016-05-02T06:31:39.062Z,19.46
2016-05-02T06:32:38.877Z,19.45
2016-05-02T06:33:39.021Z,19.46
2016-05-02T06:34:38.992Z,19.35
2016-05-02T06:35:38.964Z,19.31
2016-05-02T06:36:39.013Z,19.35
2016-05-02T06:37:38.938Z,19.32
2016-05-02T06:38:39.362Z,19.39
2016-05-02T06:39:38.896Z,19.27
2016-05-02T06:40:38.899Z,19.35
2016-05-02T06:41:38.855Z,19.32
2016-05-02T06:42:38.826Z,19.42
2016-05-02T06:43:38.813Z,19.38
2016-05-02T06:44:38.784Z,19.34
2016-05-02T06:45:38.959Z,19.27
2016-05-02T06:46:38.602Z,19.28
2016-05-02T06:47:38.715Z,19.25
2016-05-02T06:48:38.717Z,19.25
2016-05-02T06:49:38.689Z,19.31
2016-05-02T06:50:38.661Z,19.28
2016-05-02T06:51:39.319Z,19.27
2016-05-02T06:52:38.321Z,19.27
2016-05-02T06:53:38.964Z,19.25
2016-05-02T06:54:38.577Z,19.24
2016-05-02T06:55:38.564Z,19.25
2016-05-02T06:56:38.394Z,19.27
2016-05-02T06:57:38.522Z,19.15
2016-05-02T06:58:38.353Z,19.24
2016-05-02T06:59:38.497Z,19.25
2016-05-02T07:00:38.468Z,19.17
2016-05-02T07:01:38.877Z,19.2
2016-05-02T07:02:38.427Z,19.23
2016-05-02T07:03:38.399Z,19.23
2016-05-02T07:04:38.401Z,19.17
2016-05-02T07:05:38.357Z,19.15
2016-05-02T07:06:38.704Z,19.27
2016-05-02T07:07:38.315Z,19.3
2016-05-02T07:08:38.318Z,19.34
2016-05-02T07:09:38.993Z,19.32
2016-05-02T07:10:38.260Z,19.15
2016-05-02T07:11:38.092Z,19.2
2016-05-02T07:12:38.235Z,19.25
2016-05-02T07:13:38.190Z,19.2
2016-05-02T07:14:38.193Z,19.27
2016-05-02T07:15:38.164Z,19.23
2016-05-02T07:16:37.981Z,19.17
2016-05-02T07:17:38.264Z,19.27
2016-05-02T07:18:37.954Z,19.17
2016-05-02T07:19:38.081Z,19.17
2016-05-02T07:20:38.069Z,19.2
2016-05-02T07:21:38.197Z,19.27
2016-05-02T07:22:38.011Z,19.25
2016-05-02T07:23:38.000Z,19.16
2016-05-02T07:24:37.986Z,19.12
2016-05-02T07:25:38.114Z,19.13
2016-05-02T07:26:37.945Z,19.16
2016-05-02T07:27:37.916Z,19.2
2016-05-02T07:28:37.903Z,19.23
2016-05-02T07:29:37.874Z,19.28
2016-05-02T07:30:37.549Z,19.17
2016-05-02T07:31:37.832Z,19.12
2016-05-02T07:32:37.913Z,19.21
2016-05-02T07:33:37.791Z,19.17
2016-05-02T07:34:37.779Z,19.2
2016-05-02T07:35:37.749Z,19.15
2016-05-02T07:36:38.127Z,19.2
2016-05-02T07:37:37.707Z,19.25
2016-05-02T07:38:37.540Z,19.16
2016-05-02T07:39:37.526Z,19.23
2016-05-02T07:40:37.732Z,19.17
2016-05-02T07:41:37.657Z,19.21
2016-05-02T07:42:37.301Z,19.3
2016-05-02T07:43:37.599Z,19.2
2016-05-02T07:44:37.431Z,19.23
2016-05-02T07:45:37.402Z,19.3
2016-05-02T07:46:37.529Z,19.27
2016-05-02T07:47:37.517Z,19.27
2016-05-02T07:48:37.941Z,19.2
2016-05-02T07:49:37.475Z,19.27
2016-05-02T07:50:37.306Z,19.25
2016-05-02T07:51:37.450Z,19.27
2016-05-02T07:52:37.405Z,19.28
2016-05-02T07:53:37.423Z,19.28
2016-05-02T07:54:37.378Z,19.25
2016-05-02T07:55:37.366Z,19.23
2016-05-02T07:56:37.806Z,19.3
2016-05-02T07:57:37.309Z,19.3
2016-05-02T07:58:37.139Z,19.24
2016-05-02T07:59:37.267Z,19.28
2016-05-02T08:00:37.255Z,19.2
2016-05-02T08:01:37.226Z,19.23
2016-05-02T08:02:37.229Z,19.2
2016-05-02T08:03:37.200Z,19.15
2016-05-02T08:04:37.015Z,19.17
2016-05-02T08:05:37.158Z,19.17
2016-05-02T08:06:37.443Z,19.21
2016-05-02T08:07:37.102Z,19.2
2016-05-02T08:08:37.089Z,19.28
2016-05-02T08:09:37.075Z,19.25
2016-05-02T08:10:37.063Z,19.3
2016-05-02T08:11:37.018Z,19.3
2016-05-02T08:12:37.209Z,19.38
2016-05-02T08:13:36.993Z,19.38
2016-05-02T08:14:36.965Z,19.43
2016-05-02T08:15:36.795Z,19.45
2016-05-02T08:16:36.937Z,19.43
2016-05-02T08:17:36.753Z,19.5
2016-05-02T08:18:36.881Z,19.52
2016-05-02T08:19:36.868Z,19.55
2016-05-02T08:20:37.043Z,19.55
2016-05-02T08:21:38.326Z,19.61
2016-05-02T08:22:36.657Z,19.55
2016-05-02T08:23:36.786Z,19.55
2016-05-02T08:24:36.772Z,19.6
2016-05-02T08:25:36.744Z,19.62
2016-05-02T08:26:36.747Z,19.62
2016-05-02T08:27:36.546Z,19.61
2016-05-02T08:28:36.705Z,19.6
2016-05-02T08:29:36.520Z,19.61
2016-05-02T08:30:36.647Z,19.57
2016-05-02T08:31:36.650Z,19.6
2016-05-02T08:32:36.606Z,19.53
2016-05-02T08:33:36.280Z,19.53
2016-05-02T08:34:36.596Z,19.55
2016-05-02T08:35:36.552Z,19.6
2016-05-02T08:36:36.382Z,19.58
2016-05-02T08:37:36.511Z,19.52
2016-05-02T08:38:36.482Z,19.57
2016-05-02T08:39:36.312Z,19.57
2016-05-02T08:40:36.456Z,19.52
2016-05-02T08:41:36.427Z,19.5
2016-05-02T08:42:36.415Z,19.57
2016-05-02T08:43:36.274Z,19.57
2016-05-02T08:44:36.373Z,19.4
2016-05-02T08:45:36.185Z,19.5
2016-05-02T08:46:36.329Z,19.55
2016-05-02T08:47:36.301Z,19.42
2016-05-02T08:48:36.303Z,19.46
2016-05-02T08:49:36.259Z,19.38
2016-05-02T08:50:36.261Z,19.42
2016-05-02T08:51:37.126Z,19.43
2016-05-02T08:52:36.048Z,19.47
2016-05-02T08:53:36.192Z,19.38
2016-05-02T08:54:36.162Z,19.46
2016-05-02T08:55:36.149Z,19.47
2016-05-02T08:56:36.137Z,19.53
2016-05-02T08:57:36.109Z,19.58
2016-05-02T08:58:36.095Z,19.64
2016-05-02T08:59:35.926Z,19.58
2016-05-02T09:00:36.054Z,19.6
2016-05-02T09:01:36.228Z,19.67
2016-05-02T09:02:36.013Z,19.61
2016-05-02T09:03:35.984Z,19.72
2016-05-02T09:04:36.002Z,19.67
2016-05-02T09:05:35.958Z,19.64
2016-05-02T09:06:35.789Z,19.71
2016-05-02T09:07:35.916Z,19.68
2016-05-02T09:08:35.732Z,19.72
2016-05-02T09:09:36.250Z,19.61
2016-05-02T09:10:35.846Z,19.68
2016-05-02T09:11:35.662Z,19.71
2016-05-02T09:12:35.804Z,19.65
2016-05-02T09:13:35.792Z,19.7
2016-05-02T09:14:35.607Z,19.65
2016-05-02T09:15:35.750Z,19.61
2016-05-02T09:16:35.721Z,19.62
2016-05-02T09:17:36.365Z,19.65
2016-05-02T09:18:35.524Z,19.62
2016-05-02T09:19:35.667Z,19.58
2016-05-02T09:20:35.654Z,19.75
2016-05-02T09:21:35.642Z,19.64
2016-05-02T09:22:35.457Z,19.58
2016-05-02T09:23:35.428Z,19.58
2016-05-02T09:24:35.572Z,19.57
2016-05-02T09:25:36.214Z,19.65
2016-05-02T09:26:35.515Z,19.6
2016-05-02T09:27:35.501Z,19.67
2016-05-02T09:28:35.489Z,19.57
2016-05-02T09:29:35.476Z,19.62
2016-05-02T09:30:35.447Z,19.52
2016-05-02T09:31:35.433Z,19.55
2016-05-02T09:32:35.405Z,19.57
2016-05-02T09:33:35.534Z,19.61
2016-05-02T09:34:35.380Z,19.61
2016-05-02T09:35:35.351Z,19.55
2016-05-02T09:36:35.761Z,19.62
2016-05-02T09:37:35.153Z,19.52
2016-05-02T09:38:35.296Z,19.68
2016-05-02T09:39:35.284Z,19.61
2016-05-02T09:40:35.240Z,19.61
2016-05-02T09:41:35.523Z,19.62
2016-05-02T09:42:35.214Z,19.58
2016-05-02T09:43:35.185Z,19.58
2016-05-02T09:44:35.156Z,19.53
2016-05-02T09:45:35.160Z,19.53
2016-05-02T09:46:35.131Z,19.58
2016-05-02T09:47:35.102Z,19.6
2016-05-02T09:48:34.980Z,19.57
2016-05-02T09:49:35.514Z,19.53
2016-05-02T09:50:35.063Z,19.6
2016-05-02T09:51:34.878Z,19.55
2016-05-02T09:52:35.007Z,19.57
2016-05-02T09:53:34.837Z,19.53
2016-05-02T09:54:34.965Z,19.57
2016-05-02T09:55:34.795Z,19.6
2016-05-02T09:56:35.173Z,19.6
2016-05-02T09:57:34.910Z,19.6
2016-05-02T09:58:34.725Z,19.55
2016-05-02T09:59:34.712Z,19.53
2016-05-02T10:00:34.839Z,19.57
2016-05-02T10:01:34.827Z,19.58
2016-05-02T10:02:34.814Z,19.65
2016-05-02T10:03:34.786Z,19.67
2016-05-02T10:04:35.164Z,19.61
2016-05-02T10:05:34.744Z,19.78
2016-05-02T10:06:34.606Z,19.79
2016-05-02T10:07:34.702Z,19.62
2016-05-02T10:08:34.690Z,19.75
2016-05-02T10:09:34.678Z,19.86
2016-05-02T10:10:34.692Z,19.94
2016-05-02T10:11:34.722Z,19.94
2016-05-02T10:12:35.190Z,20.15
2016-05-02T10:13:34.611Z,20.3
2016-05-02T10:14:34.631Z,20.48
2016-05-02T10:15:34.774Z,20.63
2016-05-02T10:16:34.621Z,20.72
2016-05-02T10:17:34.779Z,20.76
2016-05-02T10:18:34.766Z,20.81
2016-05-02T10:19:34.750Z,20.83
2016-05-02T10:20:34.742Z,20.73
2016-05-02T10:21:34.611Z,20.78
2016-05-02T10:22:34.572Z,20.71
2016-05-02T10:23:34.706Z,20.82
2016-05-02T10:24:34.696Z,20.94
2016-05-02T10:25:34.529Z,20.94
2016-05-02T10:26:34.659Z,20.91
2016-05-02T10:27:34.633Z,20.94
2016-05-02T10:28:34.778Z,20.94
2016-05-02T10:29:34.611Z,21.08
2016-05-02T10:30:34.583Z,21.05
2016-05-02T10:31:34.414Z,21.09
2016-05-02T10:32:34.543Z,21.06
2016-05-02T10:33:34.374Z,21.08
2016-05-02T10:34:34.502Z,21.05
2016-05-02T10:35:34.505Z,20.98
2016-05-02T10:36:34.413Z,21.09
2016-05-02T10:37:34.292Z,21.11
2016-05-02T10:38:34.435Z,21.13
2016-05-02T10:39:34.406Z,21.11
2016-05-02T10:40:34.393Z,21.11
2016-05-02T10:41:34.365Z,21.12
2016-05-02T10:42:34.196Z,21.18
2016-05-02T10:43:34.277Z,21.11
2016-05-02T10:44:34.310Z,21
2016-05-02T10:45:34.282Z,21.01
2016-05-02T10:46:34.268Z,20.94
2016-05-02T10:47:34.084Z,20.96
2016-05-02T10:48:34.226Z,20.93
2016-05-02T10:49:34.230Z,21
2016-05-02T10:50:34.045Z,21.01
2016-05-02T10:51:34.126Z,20.98
2016-05-02T10:52:34.003Z,21.13
2016-05-02T10:53:34.131Z,21.16
2016-05-02T10:54:34.118Z,21.05
2016-05-02T10:55:34.120Z,20.93
2016-05-02T10:56:34.076Z,20.88
2016-05-02T10:57:34.048Z,20.79
2016-05-02T10:58:34.036Z,20.76
2016-05-02T10:59:34.476Z,20.76
2016-05-02T11:00:33.853Z,20.82
2016-05-02T11:01:33.840Z,20.75
2016-05-02T11:02:33.967Z,20.72
2016-05-02T11:03:33.939Z,20.72
2016-05-02T11:04:33.927Z,20.76
2016-05-02T11:05:33.898Z,20.72
2016-05-02T11:06:34.151Z,20.73
2016-05-02T11:07:34.310Z,20.58
2016-05-02T11:08:33.844Z,20.68
2016-05-02T11:09:33.830Z,20.63
2016-05-02T11:10:33.818Z,20.79
2016-05-02T11:11:33.632Z,20.76
2016-05-02T11:12:33.619Z,20.73
2016-05-02T11:13:33.764Z,20.78
2016-05-02T11:14:33.579Z,20.75
2016-05-02T11:15:33.707Z,20.57
2016-05-02T11:16:33.537Z,20.51
2016-05-02T11:17:33.665Z,20.42
2016-05-02T11:18:33.652Z,20.6
2016-05-02T11:19:33.623Z,20.79
2016-05-02T11:20:33.610Z,20.66
2016-05-02T11:21:34.035Z,20.63
2016-05-02T11:22:33.584Z,20.79
2016-05-02T11:23:33.751Z,20.85
2016-05-02T11:24:33.535Z,20.85
2016-05-02T11:25:33.351Z,20.9
2016-05-02T11:26:33.493Z,20.85
2016-05-02T11:27:33.465Z,20.9
2016-05-02T11:28:33.451Z,20.69
2016-05-02T11:29:33.439Z,20.87
2016-05-02T11:30:33.411Z,20.97
2016-05-02T11:31:33.741Z,20.79
2016-05-02T11:32:33.401Z,20.64
2016-05-02T11:33:33.356Z,20.75
2016-05-02T11:34:33.343Z,20.83
2016-05-02T11:35:33.314Z,20.85
2016-05-02T11:36:33.098Z,20.87
2016-05-02T11:37:33.273Z,20.82
2016-05-02T11:38:33.120Z,20.85
2016-05-02T11:39:33.075Z,20.85
2016-05-02T11:40:33.078Z,20.93
2016-05-02T11:41:32.878Z,20.83
2016-05-02T11:42:33.177Z,20.91
2016-05-02T11:43:33.148Z,21.06
2016-05-02T11:44:33.136Z,21.11
2016-05-02T11:45:33.122Z,21.18
2016-05-02T11:46:33.094Z,21.13
2016-05-02T11:47:33.066Z,21.28
2016-05-02T11:48:33.068Z,21.01
2016-05-02T11:49:33.040Z,20.68
2016-05-02T11:50:33.027Z,20.5
2016-05-02T11:51:33.029Z,20.4
2016-05-02T11:52:32.985Z,20.4
2016-05-02T11:53:32.816Z,20.46
2016-05-02T11:54:32.975Z,20.41
2016-05-02T11:55:32.931Z,20.42
2016-05-02T11:56:32.918Z,20.61
2016-05-02T11:57:32.904Z,20.66
2016-05-02T11:58:32.861Z,20.63
2016-05-02T11:59:32.848Z,20.68
2016-05-02T12:00:32.835Z,20.66
2016-05-02T12:01:32.822Z,20.61
2016-05-02T12:02:32.809Z,20.61
2016-05-02T12:03:32.781Z,20.61
2016-05-02T12:04:32.815Z,20.61
2016-05-02T12:05:32.770Z,20.61
2016-05-02T12:06:33.664Z,20.66
2016-05-02T12:07:32.714Z,20.66
2016-05-02T12:08:32.717Z,20.61
2016-05-02T12:09:32.672Z,20.64
2016-05-02T12:10:32.675Z,20.64
2016-05-02T12:11:32.630Z,20.63
2016-05-02T12:12:32.883Z,20.64
2016-05-02T12:13:32.636Z,20.64
2016-05-02T12:14:32.576Z,20.66
2016-05-02T12:15:32.578Z,20.64
2016-05-02T12:16:32.565Z,20.78
2016-05-02T12:17:32.365Z,20.75
2016-05-02T12:18:32.508Z,20.75
2016-05-02T12:19:32.511Z,20.76
2016-05-02T12:20:32.749Z,20.78
2016-05-02T12:21:32.641Z,20.72
2016-05-02T12:22:32.441Z,20.75
2016-05-02T12:23:32.428Z,20.72
2016-05-02T12:24:32.399Z,20.78
2016-05-02T12:25:32.245Z,20.73
2016-05-02T12:26:32.405Z,20.81
2016-05-02T12:27:32.360Z,20.75
2016-05-02T12:28:32.785Z,20.73
2016-05-02T12:29:32.319Z,20.76
2016-05-02T12:30:32.337Z,20.82
2016-05-02T12:31:32.278Z,20.76
2016-05-02T12:32:32.264Z,20.83
2016-05-02T12:33:32.096Z,20.85
2016-05-02T12:34:32.083Z,20.75
2016-05-02T12:35:32.225Z,20.83
2016-05-02T12:36:32.807Z,20.82
2016-05-02T12:37:32.184Z,20.81
2016-05-02T12:38:32.172Z,20.85
2016-05-02T12:39:32.143Z,20.82
2016-05-02T12:40:32.130Z,20.83
2016-05-02T12:41:31.961Z,20.82
2016-05-02T12:42:31.963Z,20.79
2016-05-02T12:43:31.935Z,20.82
2016-05-02T12:44:32.063Z,20.85
2016-05-02T12:45:32.050Z,20.83
2016-05-02T12:46:31.880Z,20.9
2016-05-02T12:47:32.008Z,20.87
2016-05-02T12:48:31.995Z,20.88
2016-05-02T12:49:31.983Z,20.82
2016-05-02T12:50:31.954Z,20.83
2016-05-02T12:51:32.066Z,20.83
2016-05-02T12:52:32.069Z,20.78
2016-05-02T12:53:31.899Z,20.83
2016-05-02T12:54:31.887Z,20.85
2016-05-02T12:55:31.857Z,20.81